createdAt,value
2023-02-15T00:02:02.113Z,16.84
2023-02-15T00:04:47.542Z,17.03
2023-02-15T00:07:18.267Z,16.84
2023-02-15T00:09:48.424Z,16.78
2023-02-15T00:12:16.128Z,16.85
2023-02-15T00:14:43.272Z,16.78
2023-02-15T00:17:15.354Z,16.84
2023-02-15T00:19:42.008Z,16.72
2023-02-15T00:22:08.562Z,16.77
2023-02-15T00:24:35.131Z,16.73
2023-02-15T00:27:01.709Z,16.76
2023-02-15T00:29:29.078Z,16.79
2023-02-15T00:31:55.693Z,16.79
2023-02-15T00:34:24.862Z,16.51
2023-02-15T00:36:51.699Z,16.72
2023-02-15T00:39:21.459Z,16.63
2023-02-15T00:41:50.268Z,16.46
2023-02-15T00:44:19.835Z,16.59
2023-02-15T00:46:46.417Z,16.50
2023-02-15T00:49:12.996Z,16.54
2023-02-15T00:51:40.513Z,16.68
2023-02-15T00:54:07.580Z,16.64
2023-02-15T00:56:39.988Z,16.56
2023-02-15T00:59:07.783Z,16.49
2023-02-15T01:01:34.441Z,16.50
2023-02-15T01:04:01.082Z,16.49
2023-02-15T01:06:33.183Z,16.39
2023-02-15T01:08:59.797Z,16.40
2023-02-15T01:11:26.386Z,16.32
2023-02-15T01:13:55.845Z,16.26
2023-02-15T01:16:23.529Z,16.40
2023-02-15T01:18:50.166Z,16.31
2023-02-15T01:21:21.790Z,16.47
2023-02-15T01:23:48.774Z,16.27
2023-02-15T01:26:15.674Z,16.36
2023-02-15T01:28:42.288Z,16.42
2023-02-15T01:31:10.859Z,16.27
2023-02-15T01:33:37.761Z,16.35
2023-02-15T01:36:05.228Z,16.33
2023-02-15T01:38:31.903Z,16.28
2023-02-15T01:41:17.315Z,16.26
2023-02-15T01:43:49.580Z,16.26
2023-02-15T01:46:20.608Z,16.23
2023-02-15T01:48:56.864Z,16.32
2023-02-15T01:51:25.625Z,16.21
2023-02-15T01:53:55.370Z,16.38
2023-02-15T01:56:25.379Z,16.31
2023-02-15T01:58:56.807Z,16.19
2023-02-15T02:01:23.640Z,16.17
2023-02-15T02:03:56.127Z,16.39
2023-02-15T02:06:23.357Z,16.18
2023-02-15T02:08:51.040Z,16.17
2023-02-15T02:11:17.683Z,16.19
2023-02-15T02:13:45.170Z,16.12
2023-02-15T02:16:29.593Z,16.11
2023-02-15T02:19:17.491Z,16.27
2023-02-15T02:22:08.680Z,16.16
2023-02-15T02:25:04.337Z,16.19
2023-02-15T02:27:55.423Z,16.12
2023-02-15T02:30:38.290Z,16.08
2023-02-15T02:33:21.256Z,16.14
2023-02-15T02:36:20.258Z,16.03
2023-02-15T02:38:57.128Z,16.05
2023-02-15T02:41:44.569Z,16.02
2023-02-15T02:44:31.602Z,15.97
2023-02-15T02:47:03.590Z,15.98
2023-02-15T02:49:43.032Z,16.01
2023-02-15T02:52:37.530Z,16.05
2023-02-15T02:55:31.634Z,15.96
2023-02-15T02:58:07.163Z,15.87
2023-02-15T03:00:39.814Z,15.89
2023-02-15T03:03:31.430Z,15.85
2023-02-15T03:06:04.378Z,15.85
2023-02-15T03:08:38.684Z,15.95
2023-02-15T03:11:08.615Z,15.86
2023-02-15T03:13:35.531Z,15.86
2023-02-15T03:16:21.194Z,15.89
2023-02-15T03:18:53.820Z,15.92
2023-02-15T03:21:31.757Z,15.87
2023-02-15T03:24:10.622Z,15.76
2023-02-15T03:26:38.732Z,15.88
2023-02-15T03:29:09.828Z,15.80
2023-02-15T03:31:44.521Z,15.80
2023-02-15T03:34:12.782Z,15.73
2023-02-15T03:37:08.220Z,15.77
2023-02-15T03:39:38.698Z,15.89
2023-02-15T03:42:11.446Z,15.77
2023-02-15T03:45:04.700Z,15.64
2023-02-15T03:47:33.917Z,15.75
2023-02-15T03:50:05.220Z,15.79
2023-02-15T03:52:33.096Z,15.70
2023-02-15T03:54:59.948Z,15.59
2023-02-15T03:57:49.621Z,15.72
2023-02-15T04:00:43.253Z,15.66
2023-02-15T04:03:16.016Z,15.54
2023-02-15T04:05:44.454Z,15.64
2023-02-15T04:08:11.730Z,15.51
2023-02-15T04:10:53.287Z,15.55
2023-02-15T04:13:21.184Z,15.59
2023-02-15T04:16:07.103Z,15.51
2023-02-15T04:18:58.004Z,15.59
2023-02-15T04:21:44.521Z,15.58
2023-02-15T04:24:30.217Z,15.46
2023-02-15T04:26:57.103Z,15.58
2023-02-15T04:29:24.817Z,15.50
2023-02-15T04:31:52.788Z,15.56
2023-02-15T04:34:19.656Z,15.59
2023-02-15T04:36:48.452Z,15.49
2023-02-15T04:39:16.110Z,15.46
2023-02-15T04:41:45.766Z,15.53
2023-02-15T04:44:12.591Z,15.41
2023-02-15T04:46:39.190Z,15.53
2023-02-15T04:49:05.765Z,15.42
2023-02-15T04:51:32.355Z,15.44
2023-02-15T04:53:58.937Z,15.48
2023-02-15T04:56:26.784Z,15.35
2023-02-15T04:58:53.332Z,15.37
2023-02-15T05:01:20.078Z,15.24
2023-02-15T05:03:46.719Z,15.30
2023-02-15T05:06:14.467Z,15.36
2023-02-15T05:08:42.880Z,15.36
2023-02-15T05:11:09.485Z,15.36
2023-02-15T05:13:36.082Z,15.39
2023-02-15T05:16:05.234Z,15.38
2023-02-15T05:18:31.958Z,15.33
2023-02-15T05:20:58.597Z,15.35
2023-02-15T05:23:25.238Z,15.25
2023-02-15T05:26:11.237Z,15.30
2023-02-15T05:28:38.474Z,15.19
2023-02-15T05:31:15.486Z,15.15
2023-02-15T05:33:42.275Z,15.20
2023-02-15T05:36:09.465Z,15.19
2023-02-15T05:38:42.129Z,15.21
2023-02-15T05:41:09.298Z,15.27
2023-02-15T05:43:36.234Z,15.24
2023-02-15T05:46:04.005Z,15.24
2023-02-15T05:48:31.057Z,15.18
2023-02-15T05:51:14.006Z,15.08
2023-02-15T05:53:42.550Z,15.08
2023-02-15T05:56:10.732Z,15.07
2023-02-15T05:58:41.661Z,15.11
2023-02-15T06:01:25.030Z,15.11
2023-02-15T06:03:51.722Z,15.14
2023-02-15T06:06:18.793Z,14.99
2023-02-15T06:08:45.367Z,14.95
2023-02-15T06:11:11.953Z,15.12
2023-02-15T06:13:39.200Z,14.94
2023-02-15T06:16:07.344Z,14.85
2023-02-15T06:18:36.813Z,14.93
2023-02-15T06:21:03.449Z,15.01
2023-02-15T06:23:30.015Z,14.91
2023-02-15T06:25:56.612Z,15.00
2023-02-15T06:28:26.067Z,14.98
2023-02-15T06:30:53.295Z,14.89
2023-02-15T06:33:19.982Z,14.92
2023-02-15T06:35:47.549Z,14.87
2023-02-15T06:38:14.529Z,14.85
2023-02-15T06:40:41.203Z,14.93
2023-02-15T06:43:07.769Z,14.86
2023-02-15T06:45:34.381Z,14.83
2023-02-15T06:48:00.950Z,14.84
2023-02-15T06:50:27.536Z,14.70
2023-02-15T06:52:58.356Z,14.90
2023-02-15T06:55:25.444Z,14.77
2023-02-15T06:57:52.243Z,14.76
2023-02-15T07:00:19.486Z,14.78
2023-02-15T07:02:46.204Z,14.85
2023-02-15T07:05:12.939Z,14.72
2023-02-15T07:07:39.749Z,14.68
2023-02-15T07:10:07.244Z,14.78
2023-02-15T07:12:43.406Z,14.92
2023-02-15T07:15:17.048Z,15.19
2023-02-15T07:17:43.849Z,15.42
2023-02-15T07:20:12.083Z,15.63
2023-02-15T07:22:38.750Z,15.99
2023-02-15T07:25:08.138Z,16.22
2023-02-15T07:27:35.002Z,16.47
2023-02-15T07:30:01.838Z,16.75
2023-02-15T07:32:30.701Z,16.97
2023-02-15T07:34:57.679Z,17.09
2023-02-15T07:37:24.635Z,17.24
2023-02-15T07:39:51.242Z,17.24
2023-02-15T07:42:18.869Z,17.26
2023-02-15T07:44:45.481Z,17.27
2023-02-15T07:47:13.020Z,17.26
2023-02-15T07:49:39.644Z,17.17
2023-02-15T07:52:06.203Z,17.12
2023-02-15T07:54:32.780Z,17.09
2023-02-15T07:56:59.331Z,17.10
2023-02-15T07:59:25.917Z,17.02
2023-02-15T08:01:53.950Z,16.96
2023-02-15T08:04:20.600Z,16.96
2023-02-15T08:06:47.236Z,16.89
2023-02-15T08:09:13.814Z,16.88
2023-02-15T08:11:41.759Z,16.78
2023-02-15T08:14:10.917Z,16.77
2023-02-15T08:16:44.697Z,16.76
2023-02-15T08:19:18.597Z,16.70
2023-02-15T08:21:47.406Z,16.66
2023-02-15T08:24:15.864Z,16.61
2023-02-15T08:26:43.841Z,16.66
2023-02-15T08:29:10.623Z,16.60
2023-02-15T08:31:38.597Z,16.60
2023-02-15T08:34:05.667Z,16.52
2023-02-15T08:36:32.818Z,16.49
2023-02-15T08:39:00.618Z,16.52
2023-02-15T08:41:30.734Z,16.45
2023-02-15T08:43:59.443Z,16.37
2023-02-15T08:46:28.472Z,16.21
2023-02-15T08:48:55.491Z,16.35
2023-02-15T08:51:27.766Z,16.35
2023-02-15T08:53:56.662Z,16.25
2023-02-15T08:56:32.916Z,16.37
2023-02-15T08:58:59.497Z,16.17
2023-02-15T09:01:28.469Z,16.30
2023-02-15T09:04:02.916Z,16.32
2023-02-15T09:06:30.263Z,16.28
2023-02-15T09:08:57.494Z,16.26
2023-02-15T09:11:25.026Z,16.26
2023-02-15T09:14:03.238Z,16.34
2023-02-15T09:16:32.182Z,16.23
2023-02-15T09:18:59.166Z,16.25
2023-02-15T09:21:27.021Z,16.16
2023-02-15T09:23:57.731Z,16.26
2023-02-15T09:26:25.450Z,16.22
2023-02-15T09:28:57.288Z,16.18
2023-02-15T09:31:29.405Z,16.31
2023-02-15T09:33:56.356Z,16.22
2023-02-15T09:36:24.157Z,16.16
2023-02-15T09:39:15.561Z,16.18
2023-02-15T09:41:57.180Z,16.19
2023-02-15T09:44:39.173Z,15.76
2023-02-15T09:47:16.657Z,15.80
2023-02-15T09:49:52.338Z,15.77
2023-02-15T09:52:35.538Z,15.87
2023-02-15T09:55:02.058Z,16.09
2023-02-15T09:58:07.638Z,16.03
2023-02-15T10:00:57.527Z,16.12
2023-02-15T10:03:45.219Z,16.05
2023-02-15T10:06:25.102Z,16.18
2023-02-15T10:09:14.031Z,16.47
2023-02-15T10:12:05.075Z,16.48
2023-02-15T10:14:50.049Z,16.49
2023-02-15T10:17:35.035Z,16.59
2023-02-15T10:20:13.497Z,16.56
2023-02-15T10:22:58.123Z,16.41
2023-02-15T10:25:52.773Z,16.41
2023-02-15T10:28:21.632Z,16.52
2023-02-15T10:30:53.339Z,16.50
2023-02-15T10:33:40.423Z,16.46
2023-02-15T10:36:44.118Z,16.56
2023-02-15T10:39:18.321Z,16.69
2023-02-15T10:42:07.076Z,16.69
2023-02-15T10:45:10.720Z,16.72
2023-02-15T10:47:58.603Z,16.69
2023-02-15T10:50:27.800Z,16.77
2023-02-15T10:53:17.112Z,16.80
2023-02-15T10:55:53.662Z,16.85
2023-02-15T10:58:34.472Z,16.85
2023-02-15T11:01:15.958Z,16.83
2023-02-15T11:04:00.735Z,16.81
2023-02-15T11:06:28.015Z,16.81
2023-02-15T11:08:57.566Z,16.82
2023-02-15T11:11:36.682Z,16.90
2023-02-15T11:14:10.287Z,16.90
2023-02-15T11:16:42.826Z,16.97
2023-02-15T11:19:23.676Z,16.99
2023-02-15T11:21:54.550Z,16.92
2023-02-15T11:24:21.783Z,16.92
2023-02-15T11:27:04.576Z,16.90
2023-02-15T11:29:37.789Z,16.92
2023-02-15T11:32:35.813Z,16.92
2023-02-15T11:35:11.396Z,16.91
2023-02-15T11:37:47.686Z,16.92
2023-02-15T11:40:21.655Z,16.91
2023-02-15T11:42:50.942Z,16.93
2023-02-15T11:45:35.456Z,16.98
2023-02-15T11:48:03.174Z,16.98
2023-02-15T11:50:33.931Z,17.00
2023-02-15T11:53:05.467Z,17.03
2023-02-15T11:55:32.244Z,17.08
2023-02-15T11:58:05.171Z,17.14
2023-02-15T12:00:41.383Z,17.19
2023-02-15T12:03:19.026Z,17.25
2023-02-15T12:05:48.589Z,17.37
2023-02-15T12:08:18.921Z,17.44
2023-02-15T12:11:02.455Z,17.67
2023-02-15T12:13:29.114Z,17.81
2023-02-15T12:15:57.337Z,17.79
2023-02-15T12:18:45.408Z,17.80
2023-02-15T12:21:27.611Z,17.87
2023-02-15T12:23:58.870Z,17.91
2023-02-15T12:26:36.294Z,17.99
2023-02-15T12:29:08.732Z,18.08
2023-02-15T12:31:40.361Z,18.09
2023-02-15T12:34:22.804Z,18.16
2023-02-15T12:36:55.433Z,18.14
2023-02-15T12:39:29.822Z,18.22
2023-02-15T12:41:56.314Z,18.23
2023-02-15T12:44:29.817Z,18.30
2023-02-15T12:47:04.610Z,18.31
2023-02-15T12:49:34.054Z,18.33
2023-02-15T12:52:10.686Z,18.31
2023-02-15T12:54:42.562Z,18.31
2023-02-15T12:57:15.189Z,18.29
2023-02-15T12:59:52.235Z,18.30
2023-02-15T13:02:42.237Z,18.29
2023-02-15T13:05:19.387Z,18.26
2023-02-15T13:07:48.295Z,18.19
2023-02-15T13:10:27.328Z,18.25
2023-02-15T13:12:55.261Z,18.16
2023-02-15T13:15:32.269Z,18.11
2023-02-15T13:17:59.932Z,18.05
2023-02-15T13:20:28.330Z,18.04
2023-02-15T13:22:59.977Z,18.04
2023-02-15T13:25:30.720Z,18.04
2023-02-15T13:28:02.292Z,17.97
2023-02-15T13:30:36.206Z,17.96
2023-02-15T13:33:18.169Z,17.92
2023-02-15T13:35:51.792Z,17.97
2023-02-15T13:38:27.752Z,17.85
2023-02-15T13:40:59.923Z,17.84
2023-02-15T13:43:51.213Z,17.74
2023-02-15T13:46:26.977Z,17.71
2023-02-15T13:48:53.632Z,17.69
2023-02-15T13:51:23.391Z,17.69
2023-02-15T13:53:57.946Z,17.77
2023-02-15T13:56:45.390Z,17.73
2023-02-15T13:59:41.459Z,17.69
2023-02-15T14:02:27.501Z,17.75
2023-02-15T14:05:12.774Z,17.77
2023-02-15T14:08:08.727Z,17.70
2023-02-15T14:11:08.118Z,17.69
2023-02-15T14:13:46.567Z,17.71
2023-02-15T14:16:25.487Z,17.72
2023-02-15T14:19:00.631Z,17.68
2023-02-15T14:21:29.258Z,17.69
2023-02-15T14:24:13.170Z,17.74
2023-02-15T14:27:15.734Z,17.70
2023-02-15T14:30:00.712Z,17.63
2023-02-15T14:32:38.254Z,17.71
2023-02-15T14:35:10.951Z,17.68
2023-02-15T14:38:11.706Z,17.68
2023-02-15T14:41:02.315Z,17.67
2023-02-15T14:43:34.444Z,17.65
2023-02-15T14:46:22.386Z,17.69
2023-02-15T14:48:55.872Z,17.69
2023-02-15T14:51:41.152Z,17.71
2023-02-15T14:54:08.850Z,17.71
2023-02-15T14:56:36.054Z,17.65
2023-02-15T14:59:19.582Z,17.65
2023-02-15T15:02:00.204Z,17.65
2023-02-15T15:05:03.188Z,17.67
2023-02-15T15:07:47.539Z,17.70
2023-02-15T15:10:17.265Z,17.73
2023-02-15T15:12:46.445Z,17.68
2023-02-15T15:15:16.814Z,17.67
2023-02-15T15:18:10.520Z,17.69
2023-02-15T15:20:51.630Z,17.68
2023-02-15T15:23:24.361Z,17.69
2023-02-15T15:26:12.247Z,17.75
2023-02-15T15:28:38.757Z,17.70
2023-02-15T15:31:36.528Z,17.67
2023-02-15T15:34:21.513Z,17.65
2023-02-15T15:37:14.193Z,17.68
2023-02-15T15:40:02.417Z,17.60
2023-02-15T15:42:50.896Z,17.62
2023-02-15T15:45:39.273Z,17.59
2023-02-15T15:48:53.456Z,17.63
2023-02-15T15:51:41.492Z,17.68
2023-02-15T15:54:23.526Z,17.54
2023-02-15T15:56:56.832Z,17.58
2023-02-15T15:59:29.235Z,17.62
2023-02-15T16:01:56.202Z,17.60
2023-02-15T16:04:31.324Z,17.55
2023-02-15T16:06:59.022Z,17.65
2023-02-15T16:09:28.321Z,17.58
2023-02-15T16:12:02.832Z,17.61
2023-02-15T16:14:39.412Z,17.62
2023-02-15T16:17:08.952Z,17.67
2023-02-15T16:19:41.690Z,17.61
2023-02-15T16:22:19.524Z,17.62
2023-02-15T16:25:13.970Z,17.68
2023-02-15T16:27:43.047Z,17.65
2023-02-15T16:30:29.690Z,17.58
2023-02-15T16:33:05.608Z,17.67
2023-02-15T16:35:35.838Z,17.63
2023-02-15T16:38:03.206Z,17.53
2023-02-15T16:40:47.300Z,17.62
2023-02-15T16:43:20.934Z,17.56
2023-02-15T16:45:47.877Z,17.51
2023-02-15T16:48:22.494Z,17.53
2023-02-15T16:50:54.604Z,17.52
2023-02-15T16:53:27.276Z,17.48
2023-02-15T16:56:00.010Z,17.44
2023-02-15T16:58:44.516Z,17.38
2023-02-15T17:01:13.278Z,17.43
2023-02-15T17:03:41.376Z,17.37
2023-02-15T17:06:37.054Z,17.34
2023-02-15T17:09:05.576Z,17.32
2023-02-15T17:11:39.006Z,17.32
2023-02-15T17:14:05.794Z,17.25
2023-02-15T17:17:01.155Z,17.24
2023-02-15T17:19:33.840Z,17.26
2023-02-15T17:22:03.056Z,17.22
2023-02-15T17:24:39.019Z,17.21
2023-02-15T17:27:15.739Z,17.17
2023-02-15T17:29:55.184Z,17.33
2023-02-15T17:32:30.629Z,17.31
2023-02-15T17:35:04.496Z,17.29
2023-02-15T17:37:36.733Z,17.24
2023-02-15T17:40:20.700Z,17.24
2023-02-15T17:42:47.572Z,17.20
2023-02-15T17:45:15.480Z,17.21
2023-02-15T17:47:42.631Z,17.23
2023-02-15T17:50:19.112Z,17.17
2023-02-15T17:52:45.851Z,17.15
2023-02-15T17:55:36.338Z,17.19
2023-02-15T17:58:06.128Z,17.19
2023-02-15T18:00:54.488Z,17.16
2023-02-15T18:03:39.684Z,17.08
2023-02-15T18:06:25.215Z,17.13
2023-02-15T18:09:12.510Z,17.10
2023-02-15T18:11:39.427Z,17.06
2023-02-15T18:14:10.317Z,17.11
2023-02-15T18:16:43.307Z,17.10
2023-02-15T18:19:18.513Z,17.04
2023-02-15T18:21:46.339Z,17.08
2023-02-15T18:24:21.001Z,17.06
2023-02-15T18:26:48.356Z,17.06
2023-02-15T18:29:14.958Z,17.04
2023-02-15T18:31:42.151Z,17.03
2023-02-15T18:34:18.616Z,17.06
2023-02-15T18:36:45.867Z,17.04
2023-02-15T18:39:42.513Z,17.01
2023-02-15T18:42:20.754Z,16.94
2023-02-15T18:44:47.806Z,16.90
2023-02-15T18:47:14.362Z,16.96
2023-02-15T18:49:40.957Z,16.96
2023-02-15T18:52:14.658Z,16.96
2023-02-15T18:54:41.887Z,16.93
2023-02-15T18:57:14.145Z,16.86
2023-02-15T18:59:40.861Z,16.90
2023-02-15T19:02:14.636Z,16.90
2023-02-15T19:04:41.841Z,16.85
2023-02-15T19:07:34.533Z,16.86
2023-02-15T19:10:01.672Z,16.86
2023-02-15T19:12:28.747Z,16.86
2023-02-15T19:14:56.789Z,16.85
2023-02-15T19:17:24.412Z,16.92
2023-02-15T19:19:51.942Z,16.88
2023-02-15T19:22:30.956Z,16.82
2023-02-15T19:25:00.535Z,16.84
2023-02-15T19:27:35.035Z,16.80
2023-02-15T19:30:18.040Z,16.81
2023-02-15T19:32:45.436Z,16.74
2023-02-15T19:35:23.061Z,16.82
2023-02-15T19:37:54.887Z,16.78
2023-02-15T19:40:22.119Z,16.76
2023-02-15T19:42:51.658Z,16.68
2023-02-15T19:45:23.792Z,16.76
2023-02-15T19:47:52.943Z,16.74
2023-02-15T19:50:21.509Z,16.73
2023-02-15T19:52:48.480Z,16.67
2023-02-15T19:55:25.243Z,16.71
2023-02-15T19:57:53.304Z,16.68
2023-02-15T20:00:26.167Z,16.69
2023-02-15T20:02:53.592Z,16.66
2023-02-15T20:05:20.363Z,16.68
2023-02-15T20:07:52.129Z,16.65
2023-02-15T20:10:24.096Z,16.61
2023-02-15T20:12:50.832Z,16.65
2023-02-15T20:15:20.178Z,16.66
2023-02-15T20:17:47.159Z,16.61
2023-02-15T20:20:14.345Z,16.65
2023-02-15T20:22:42.564Z,16.63
2023-02-15T20:25:29.793Z,16.58
2023-02-15T20:27:58.095Z,16.53
2023-02-15T20:30:30.640Z,16.57
2023-02-15T20:32:57.594Z,16.56
2023-02-15T20:35:25.934Z,16.58
2023-02-15T20:37:54.512Z,16.52
2023-02-15T20:40:59.345Z,16.51
2023-02-15T20:43:25.913Z,16.54
2023-02-15T20:45:52.473Z,16.57
2023-02-15T20:48:19.037Z,16.50
2023-02-15T20:50:45.658Z,16.48
2023-02-15T20:53:12.234Z,16.49
2023-02-15T20:55:38.905Z,16.50
2023-02-15T20:58:23.030Z,16.51
2023-02-15T21:00:50.372Z,16.49
2023-02-15T21:03:19.540Z,16.47
2023-02-15T21:05:47.665Z,16.49
2023-02-15T21:08:16.565Z,16.47
2023-02-15T21:10:45.750Z,16.48
2023-02-15T21:13:35.696Z,16.51
2023-02-15T21:16:02.727Z,16.49
2023-02-15T21:18:31.860Z,16.45
2023-02-15T21:21:04.804Z,16.42
2023-02-15T21:23:39.308Z,16.43
2023-02-15T21:26:06.346Z,16.42
2023-02-15T21:28:32.891Z,16.44
2023-02-15T21:30:59.616Z,16.40
2023-02-15T21:33:26.974Z,16.43
2023-02-15T21:35:56.143Z,16.40
2023-02-15T21:38:26.031Z,16.44
2023-02-15T21:40:52.597Z,16.38
2023-02-15T21:43:42.669Z,16.41
2023-02-15T21:46:36.922Z,16.38
2023-02-15T21:49:04.594Z,16.37
2023-02-15T21:51:49.963Z,16.37
2023-02-15T21:57:16.246Z,16.38
2023-02-15T21:59:43.668Z,16.35
2023-02-15T22:02:30.756Z,16.27
2023-02-15T22:04:58.321Z,16.27
2023-02-15T22:07:24.883Z,16.34
2023-02-15T22:09:51.441Z,16.25
2023-02-15T22:12:18.877Z,16.31
2023-02-15T22:14:50.778Z,16.30
2023-02-15T22:17:23.073Z,16.27
2023-02-15T22:19:50.250Z,16.21
2023-02-15T22:22:17.210Z,16.21
2023-02-15T22:24:44.405Z,16.23
2023-02-15T22:27:18.974Z,16.23
2023-02-15T22:29:45.695Z,16.22
2023-02-15T22:32:23.934Z,16.19
2023-02-15T22:34:51.943Z,16.26
2023-02-15T22:37:18.525Z,16.15
2023-02-15T22:39:45.143Z,16.18
2023-02-15T22:42:27.203Z,16.22
2023-02-15T22:44:55.412Z,16.21
2023-02-15T22:47:23.741Z,16.22
2023-02-15T22:49:50.641Z,16.17
2023-02-15T22:52:17.662Z,16.20
2023-02-15T22:54:44.677Z,16.19
2023-02-15T22:57:31.350Z,16.16
2023-02-15T22:59:58.101Z,16.16
2023-02-15T23:02:24.711Z,16.07
2023-02-15T23:04:51.284Z,16.09
2023-02-15T23:07:19.117Z,16.11
2023-02-15T23:09:46.447Z,16.05
2023-02-15T23:12:24.176Z,16.02
2023-02-15T23:14:50.959Z,16.05
2023-02-15T23:17:17.922Z,16.04
2023-02-15T23:19:44.606Z,16.05
2023-02-15T23:22:15.918Z,16.02
2023-02-15T23:24:42.893Z,16.02
2023-02-15T23:27:35.769Z,16.02
2023-02-15T23:30:05.850Z,16.05
2023-02-15T23:32:32.728Z,16.02
2023-02-15T23:34:59.392Z,15.97
2023-02-15T23:37:25.980Z,16.01
2023-02-15T23:40:11.033Z,15.96
2023-02-15T23:42:37.761Z,15.95
2023-02-15T23:45:06.478Z,15.96
2023-02-15T23:47:53.192Z,15.94
2023-02-15T23:50:22.320Z,15.89
2023-02-15T23:52:50.349Z,15.98
2023-02-15T23:55:17.608Z,15.96
2023-02-15T23:57:44.653Z,15.92
